sensor_id;sensor_type;location;lat;lon;timestamp;temperature;humidity
68719;DHT22;55696;52.138;5.444;2023-02-19T00:01:31;13.40;78.00
68719;DHT22;55696;52.138;5.444;2023-02-19T00:04:08;13.40;77.90
68719;DHT22;55696;52.138;5.444;2023-02-19T00:06:36;13.90;78.30
68719;DHT22;55696;52.138;5.444;2023-02-19T00:09:04;13.50;76.30
68719;DHT22;55696;52.138;5.444;2023-02-19T00:11:32;13.40;76.50
68719;DHT22;55696;52.138;5.444;2023-02-19T00:14:01;13.40;76.90
68719;DHT22;55696;52.138;5.444;2023-02-19T00:16:37;14.40;77.30
68719;DHT22;55696;52.138;5.444;2023-02-19T00:19:07;13.50;77.70
68719;DHT22;55696;52.138;5.444;2023-02-19T00:21:37;13.40;77.40
68719;DHT22;55696;52.138;5.444;2023-02-19T00:24:05;14.30;76.50
68719;DHT22;55696;52.138;5.444;2023-02-19T00:26:33;13.50;78.00
68719;DHT22;55696;52.138;5.444;2023-02-19T00:29:01;13.40;76.60
68719;DHT22;55696;52.138;5.444;2023-02-19T00:31:30;13.40;76.60
68719;DHT22;55696;52.138;5.444;2023-02-19T00:34:04;14.40;77.80
68719;DHT22;55696;52.138;5.444;2023-02-19T00:36:33;13.90;78.20
68719;DHT22;55696;52.138;5.444;2023-02-19T00:39:05;13.40;77.30
68719;DHT22;55696;52.138;5.444;2023-02-19T00:41:33;14.20;77.70
68719;DHT22;55696;52.138;5.444;2023-02-19T00:44:03;13.40;76.20
68719;DHT22;55696;52.138;5.444;2023-02-19T00:46:47;13.30;77.10
68719;DHT22;55696;52.138;5.444;2023-02-19T00:49:19;13.40;78.10
68719;DHT22;55696;52.138;5.444;2023-02-19T00:51:47;13.50;76.90
68719;DHT22;55696;52.138;5.444;2023-02-19T00:54:15;13.60;76.80
68719;DHT22;55696;52.138;5.444;2023-02-19T00:56:42;13.40;76.60
68719;DHT22;55696;52.138;5.444;2023-02-19T00:59:09;13.40;76.20
68719;DHT22;55696;52.138;5.444;2023-02-19T01:01:36;13.50;76.20
68719;DHT22;55696;52.138;5.444;2023-02-19T01:04:04;13.40;76.20
68719;DHT22;55696;52.138;5.444;2023-02-19T01:06:32;13.40;76.20
68719;DHT22;55696;52.138;5.444;2023-02-19T01:09:00;13.40;76.10
68719;DHT22;55696;52.138;5.444;2023-02-19T01:11:27;13.40;76.30
68719;DHT22;55696;52.138;5.444;2023-02-19T01:13:58;14.20;76.50
68719;DHT22;55696;52.138;5.444;2023-02-19T01:16:25;13.30;77.70
68719;DHT22;55696;52.138;5.444;2023-02-19T01:18:53;13.40;76.20
68719;DHT22;55696;52.138;5.444;2023-02-19T01:21:23;13.80;76.80
68719;DHT22;55696;52.138;5.444;2023-02-19T01:23:51;14.30;77.80
68719;DHT22;55696;52.138;5.444;2023-02-19T01:26:21;13.30;77.00
68719;DHT22;55696;52.138;5.444;2023-02-19T01:28:48;13.30;77.40
68719;DHT22;55696;52.138;5.444;2023-02-19T01:31:21;13.20;76.60
68719;DHT22;55696;52.138;5.444;2023-02-19T01:33:51;13.30;77.20
68719;DHT22;55696;52.138;5.444;2023-02-19T01:36:18;14.30;77.80
68719;DHT22;55696;52.138;5.444;2023-02-19T01:38:46;13.30;76.10
68719;DHT22;55696;52.138;5.444;2023-02-19T01:41:16;13.30;76.40
68719;DHT22;55696;52.138;5.444;2023-02-19T01:44:02;13.30;77.20
68719;DHT22;55696;52.138;5.444;2023-02-19T01:46:31;13.30;77.80
68719;DHT22;55696;52.138;5.444;2023-02-19T01:49:13;13.20;76.70
68719;DHT22;55696;52.138;5.444;2023-02-19T01:51:46;13.40;77.30
68719;DHT22;55696;52.138;5.444;2023-02-19T01:54:16;14.20;78.10
68719;DHT22;55696;52.138;5.444;2023-02-19T01:56:46;13.20;77.30
68719;DHT22;55696;52.138;5.444;2023-02-19T01:59:15;13.30;76.50
68719;DHT22;55696;52.138;5.444;2023-02-19T02:01:42;13.20;76.70
68719;DHT22;55696;52.138;5.444;2023-02-19T02:04:11;13.20;75.90
68719;DHT22;55696;52.138;5.444;2023-02-19T02:06:59;13.30;77.20
68719;DHT22;55696;52.138;5.444;2023-02-19T02:09:28;13.10;77.90
68719;DHT22;55696;52.138;5.444;2023-02-19T02:12:15;13.20;76.90
68719;DHT22;55696;52.138;5.444;2023-02-19T02:14:45;13.10;76.20
68719;DHT22;55696;52.138;5.444;2023-02-19T02:17:59;13.20;77.80
68719;DHT22;55696;52.138;5.444;2023-02-19T02:31:16;13.10;78.10
68719;DHT22;55696;52.138;5.444;2023-02-19T02:33:58;13.00;78.40
68719;DHT22;55696;52.138;5.444;2023-02-19T02:36:31;13.10;77.60
68719;DHT22;55696;52.138;5.444;2023-02-19T02:39:01;13.00;77.60
68719;DHT22;55696;52.138;5.444;2023-02-19T02:41:34;12.90;77.50
68719;DHT22;55696;52.138;5.444;2023-02-19T02:44:01;12.90;76.20
68719;DHT22;55696;52.138;5.444;2023-02-19T02:46:33;13.00;76.30
68719;DHT22;55696;52.138;5.444;2023-02-19T02:49:08;13.00;77.90
68719;DHT22;55696;52.138;5.444;2023-02-19T02:51:43;13.00;78.20
68719;DHT22;55696;52.138;5.444;2023-02-19T02:54:20;13.00;78.10
68719;DHT22;55696;52.138;5.444;2023-02-19T02:57:11;13.00;78.00
68719;DHT22;55696;52.138;5.444;2023-02-19T02:59:47;13.00;76.90
68719;DHT22;55696;52.138;5.444;2023-02-19T03:02:23;13.00;76.40
68719;DHT22;55696;52.138;5.444;2023-02-19T03:05:03;14.00;78.00
68719;DHT22;55696;52.138;5.444;2023-02-19T03:13:11;12.90;77.90
68719;DHT22;55696;52.138;5.444;2023-02-19T03:16:06;12.90;77.80
68719;DHT22;55696;52.138;5.444;2023-02-19T03:18:57;13.00;78.10
68719;DHT22;55696;52.138;5.444;2023-02-19T03:21:50;13.80;78.30
68719;DHT22;55696;52.138;5.444;2023-02-19T03:24:24;12.80;77.90
68719;DHT22;55696;52.138;5.444;2023-02-19T03:27:12;12.90;77.90
68719;DHT22;55696;52.138;5.444;2023-02-19T03:29:45;12.90;77.30
68719;DHT22;55696;52.138;5.444;2023-02-19T03:32:31;13.90;77.60
68719;DHT22;55696;52.138;5.444;2023-02-19T03:35:05;13.20;78.50
68719;DHT22;55696;52.138;5.444;2023-02-19T03:52:19;12.90;78.10
68719;DHT22;55696;52.138;5.444;2023-02-19T03:57:36;13.00;77.70
68719;DHT22;55696;52.138;5.444;2023-02-19T04:03:08;12.90;77.70
68719;DHT22;55696;52.138;5.444;2023-02-19T04:05:43;12.90;77.80
68719;DHT22;55696;52.138;5.444;2023-02-19T04:08:15;12.80;78.00
68719;DHT22;55696;52.138;5.444;2023-02-19T04:10:48;12.80;78.00
68719;DHT22;55696;52.138;5.444;2023-02-19T04:13:39;12.70;77.40
68719;DHT22;55696;52.138;5.444;2023-02-19T04:16:10;12.80;78.10
68719;DHT22;55696;52.138;5.444;2023-02-19T04:18:40;12.70;77.70
68719;DHT22;55696;52.138;5.444;2023-02-19T04:21:09;12.70;77.50
68719;DHT22;55696;52.138;5.444;2023-02-19T04:23:41;12.70;76.80
68719;DHT22;55696;52.138;5.444;2023-02-19T04:26:10;12.60;78.20
68719;DHT22;55696;52.138;5.444;2023-02-19T04:28:38;12.60;77.70
68719;DHT22;55696;52.138;5.444;2023-02-19T04:31:05;12.70;77.30
68719;DHT22;55696;52.138;5.444;2023-02-19T04:33:32;12.70;77.00
68719;DHT22;55696;52.138;5.444;2023-02-19T04:35:59;12.80;76.80
68719;DHT22;55696;52.138;5.444;2023-02-19T04:38:26;12.80;76.90
68719;DHT22;55696;52.138;5.444;2023-02-19T04:40:53;12.70;76.70
68719;DHT22;55696;52.138;5.444;2023-02-19T04:43:20;12.70;76.70
68719;DHT22;55696;52.138;5.444;2023-02-19T04:45:46;12.70;76.80
68719;DHT22;55696;52.138;5.444;2023-02-19T04:48:13;12.70;76.70
68719;DHT22;55696;52.138;5.444;2023-02-19T04:50:40;13.50;77.10
68719;DHT22;55696;52.138;5.444;2023-02-19T04:53:07;12.70;76.60
68719;DHT22;55696;52.138;5.444;2023-02-19T04:55:38;12.70;76.60
68719;DHT22;55696;52.138;5.444;2023-02-19T04:58:05;12.70;78.30
68719;DHT22;55696;52.138;5.444;2023-02-19T05:00:32;12.70;76.60
68719;DHT22;55696;52.138;5.444;2023-02-19T05:03:00;12.80;76.60
68719;DHT22;55696;52.138;5.444;2023-02-19T05:05:27;12.70;76.90
68719;DHT22;55696;52.138;5.444;2023-02-19T05:07:53;13.70;76.70
68719;DHT22;55696;52.138;5.444;2023-02-19T05:10:20;12.80;77.00
68719;DHT22;55696;52.138;5.444;2023-02-19T05:12:47;13.60;76.80
68719;DHT22;55696;52.138;5.444;2023-02-19T05:15:14;12.70;76.30
68719;DHT22;55696;52.138;5.444;2023-02-19T05:17:40;12.70;76.50
68719;DHT22;55696;52.138;5.444;2023-02-19T05:20:08;12.70;76.40
68719;DHT22;55696;52.138;5.444;2023-02-19T05:22:34;12.80;76.70
68719;DHT22;55696;52.138;5.444;2023-02-19T05:25:01;12.70;76.30
68719;DHT22;55696;52.138;5.444;2023-02-19T05:27:29;13.70;77.10
68719;DHT22;55696;52.138;5.444;2023-02-19T05:29:56;12.70;77.30
68719;DHT22;55696;52.138;5.444;2023-02-19T05:32:23;12.70;76.30
68719;DHT22;55696;52.138;5.444;2023-02-19T05:34:50;12.60;76.30
68719;DHT22;55696;52.138;5.444;2023-02-19T05:37:17;13.30;77.00
68719;DHT22;55696;52.138;5.444;2023-02-19T05:39:43;12.70;76.50
68719;DHT22;55696;52.138;5.444;2023-02-19T05:42:12;12.60;76.50
68719;DHT22;55696;52.138;5.444;2023-02-19T05:44:39;12.50;77.90
68719;DHT22;55696;52.138;5.444;2023-02-19T05:47:06;12.60;76.60
68719;DHT22;55696;52.138;5.444;2023-02-19T05:49:33;12.50;76.60
68719;DHT22;55696;52.138;5.444;2023-02-19T05:52:00;12.50;76.80
68719;DHT22;55696;52.138;5.444;2023-02-19T05:54:30;12.50;76.90
68719;DHT22;55696;52.138;5.444;2023-02-19T05:56:57;12.50;78.80
68719;DHT22;55696;52.138;5.444;2023-02-19T05:59:25;12.50;77.30
68719;DHT22;55696;52.138;5.444;2023-02-19T06:01:53;12.50;77.80
68719;DHT22;55696;52.138;5.444;2023-02-19T06:04:20;12.50;78.00
68719;DHT22;55696;52.138;5.444;2023-02-19T06:06:48;13.00;77.10
68719;DHT22;55696;52.138;5.444;2023-02-19T06:09:14;12.50;76.90
68719;DHT22;55696;52.138;5.444;2023-02-19T06:11:42;12.50;76.30
68719;DHT22;55696;52.138;5.444;2023-02-19T06:14:13;12.70;76.80
68719;DHT22;55696;52.138;5.444;2023-02-19T06:16:40;12.50;77.50
68719;DHT22;55696;52.138;5.444;2023-02-19T06:19:07;12.50;76.50
68719;DHT22;55696;52.138;5.444;2023-02-19T06:21:34;12.50;77.10
68719;DHT22;55696;52.138;5.444;2023-02-19T06:24:06;12.60;76.10
68719;DHT22;55696;52.138;5.444;2023-02-19T06:26:34;12.70;77.80
68719;DHT22;55696;52.138;5.444;2023-02-19T06:29:01;12.70;76.30
68719;DHT22;55696;52.138;5.444;2023-02-19T06:31:27;12.60;75.90
68719;DHT22;55696;52.138;5.444;2023-02-19T06:33:54;13.60;76.20
68719;DHT22;55696;52.138;5.444;2023-02-19T06:36:22;12.60;75.80
68719;DHT22;55696;52.138;5.444;2023-02-19T06:38:49;12.60;76.60
68719;DHT22;55696;52.138;5.444;2023-02-19T06:41:16;12.50;76.10
68719;DHT22;55696;52.138;5.444;2023-02-19T06:43:43;12.70;76.50
68719;DHT22;55696;52.138;5.444;2023-02-19T06:46:12;12.70;75.90
68719;DHT22;55696;52.138;5.444;2023-02-19T06:48:40;12.60;76.30
68719;DHT22;55696;52.138;5.444;2023-02-19T06:51:11;12.70;76.90
68719;DHT22;55696;52.138;5.444;2023-02-19T06:53:38;12.70;77.50
68719;DHT22;55696;52.138;5.444;2023-02-19T06:56:18;12.40;75.90
68719;DHT22;55696;52.138;5.444;2023-02-19T06:58:46;12.60;77.30
68719;DHT22;55696;52.138;5.444;2023-02-19T07:01:13;12.60;76.20
68719;DHT22;55696;52.138;5.444;2023-02-19T07:03:39;12.60;76.20
68719;DHT22;55696;52.138;5.444;2023-02-19T07:06:07;12.60;76.00
68719;DHT22;55696;52.138;5.444;2023-02-19T07:08:33;12.60;76.20
68719;DHT22;55696;52.138;5.444;2023-02-19T07:11:00;12.60;76.00
68719;DHT22;55696;52.138;5.444;2023-02-19T07:13:27;12.60;75.90
68719;DHT22;55696;52.138;5.444;2023-02-19T07:15:58;12.60;75.80
68719;DHT22;55696;52.138;5.444;2023-02-19T07:18:25;12.60;77.80
68719;DHT22;55696;52.138;5.444;2023-02-19T07:20:52;12.60;75.90
68719;DHT22;55696;52.138;5.444;2023-02-19T07:23:19;12.60;75.60
68719;DHT22;55696;52.138;5.444;2023-02-19T07:25:46;12.70;75.90
68719;DHT22;55696;52.138;5.444;2023-02-19T07:28:12;12.60;75.70
68719;DHT22;55696;52.138;5.444;2023-02-19T07:30:39;12.60;75.80
68719;DHT22;55696;52.138;5.444;2023-02-19T07:33:06;12.60;75.80
68719;DHT22;55696;52.138;5.444;2023-02-19T07:35:36;12.60;75.80
68719;DHT22;55696;52.138;5.444;2023-02-19T07:38:02;13.00;75.90
68719;DHT22;55696;52.138;5.444;2023-02-19T07:40:29;12.60;75.60
68719;DHT22;55696;52.138;5.444;2023-02-19T07:42:58;12.70;75.60
68719;DHT22;55696;52.138;5.444;2023-02-19T07:45:25;12.70;76.90
68719;DHT22;55696;52.138;5.444;2023-02-19T07:47:51;12.80;75.50
68719;DHT22;55696;52.138;5.444;2023-02-19T07:50:18;14.10;75.80
68719;DHT22;55696;52.138;5.444;2023-02-19T07:52:45;12.80;75.20
68719;DHT22;55696;52.138;5.444;2023-02-19T07:55:12;12.80;75.10
68719;DHT22;55696;52.138;5.444;2023-02-19T07:57:38;13.10;75.00
68719;DHT22;55696;52.138;5.444;2023-02-19T08:00:05;12.80;74.90
68719;DHT22;55696;52.138;5.444;2023-02-19T08:02:38;14.40;75.80
68719;DHT22;55696;52.138;5.444;2023-02-19T08:05:23;12.80;74.40
68719;DHT22;55696;52.138;5.444;2023-02-19T08:07:50;12.90;74.90
68719;DHT22;55696;52.138;5.444;2023-02-19T08:10:16;12.80;75.10
68719;DHT22;55696;52.138;5.444;2023-02-19T08:13:02;12.80;74.70
68719;DHT22;55696;52.138;5.444;2023-02-19T08:15:52;12.80;75.40
68719;DHT22;55696;52.138;5.444;2023-02-19T08:18:24;12.80;77.00
68719;DHT22;55696;52.138;5.444;2023-02-19T08:20:51;12.70;76.30
68719;DHT22;55696;52.138;5.444;2023-02-19T08:23:18;12.90;75.70
68719;DHT22;55696;52.138;5.444;2023-02-19T08:25:49;12.90;74.70
68719;DHT22;55696;52.138;5.444;2023-02-19T08:28:17;12.90;75.80
68719;DHT22;55696;52.138;5.444;2023-02-19T08:30:46;12.90;75.30
68719;DHT22;55696;52.138;5.444;2023-02-19T08:33:15;12.90;75.80
68719;DHT22;55696;52.138;5.444;2023-02-19T08:35:42;13.60;76.90
68719;DHT22;55696;52.138;5.444;2023-02-19T08:38:10;12.80;75.60
68719;DHT22;55696;52.138;5.444;2023-02-19T08:40:38;12.80;76.40
68719;DHT22;55696;52.138;5.444;2023-02-19T08:43:11;12.70;76.30
68719;DHT22;55696;52.138;5.444;2023-02-19T08:45:40;12.90;75.90
68719;DHT22;55696;52.138;5.444;2023-02-19T08:48:07;12.80;76.40
68719;DHT22;55696;52.138;5.444;2023-02-19T08:50:34;12.80;76.00
68719;DHT22;55696;52.138;5.444;2023-02-19T08:53:02;12.80;75.20
68719;DHT22;55696;52.138;5.444;2023-02-19T08:55:29;12.90;76.00
68719;DHT22;55696;52.138;5.444;2023-02-19T08:57:56;12.70;75.00
68719;DHT22;55696;52.138;5.444;2023-02-19T09:00:23;12.90;75.10
68719;DHT22;55696;52.138;5.444;2023-02-19T09:02:50;12.90;75.00
68719;DHT22;55696;52.138;5.444;2023-02-19T09:05:17;12.90;75.00
68719;DHT22;55696;52.138;5.444;2023-02-19T09:07:43;13.00;75.10
68719;DHT22;55696;52.138;5.444;2023-02-19T09:10:12;12.90;74.60
68719;DHT22;55696;52.138;5.444;2023-02-19T09:12:39;13.00;76.10
68719;DHT22;55696;52.138;5.444;2023-02-19T09:15:07;13.00;74.80
68719;DHT22;55696;52.138;5.444;2023-02-19T09:17:33;13.10;74.80
68719;DHT22;55696;52.138;5.444;2023-02-19T09:20:00;13.30;74.40
68719;DHT22;55696;52.138;5.444;2023-02-19T09:22:27;13.60;74.10
68719;DHT22;55696;52.138;5.444;2023-02-19T09:24:54;13.50;73.90
68719;DHT22;55696;52.138;5.444;2023-02-19T09:27:21;13.30;74.10
68719;DHT22;55696;52.138;5.444;2023-02-19T09:29:47;13.30;73.70
68719;DHT22;55696;52.138;5.444;2023-02-19T09:32:14;13.40;73.50
68719;DHT22;55696;52.138;5.444;2023-02-19T09:34:44;13.40;73.40
68719;DHT22;55696;52.138;5.444;2023-02-19T09:37:11;13.40;73.20
68719;DHT22;55696;52.138;5.444;2023-02-19T09:39:37;13.40;73.00
68719;DHT22;55696;52.138;5.444;2023-02-19T09:42:14;13.30;72.70
68719;DHT22;55696;52.138;5.444;2023-02-19T09:44:45;13.90;75.20
68719;DHT22;55696;52.138;5.444;2023-02-19T09:47:19;13.20;74.20
68719;DHT22;55696;52.138;5.444;2023-02-19T09:49:48;13.20;75.00
68719;DHT22;55696;52.138;5.444;2023-02-19T09:54:56;13.20;74.50
68719;DHT22;55696;52.138;5.444;2023-02-19T09:57:26;13.20;74.30
68719;DHT22;55696;52.138;5.444;2023-02-19T10:02:30;13.30;75.30
68719;DHT22;55696;52.138;5.444;2023-02-19T10:04:57;13.10;73.40
68719;DHT22;55696;52.138;5.444;2023-02-19T10:07:36;13.30;73.50
68719;DHT22;55696;52.138;5.444;2023-02-19T10:12:45;12.90;74.80
68719;DHT22;55696;52.138;5.444;2023-02-19T10:15:30;12.80;74.60
68719;DHT22;55696;52.138;5.444;2023-02-19T10:17:59;12.80;74.60
68719;DHT22;55696;52.138;5.444;2023-02-19T10:20:26;12.60;73.50
68719;DHT22;55696;52.138;5.444;2023-02-19T10:23:02;12.70;73.80
68719;DHT22;55696;52.138;5.444;2023-02-19T10:25:30;12.70;75.60
68719;DHT22;55696;52.138;5.444;2023-02-19T10:28:01;12.80;74.40
68719;DHT22;55696;52.138;5.444;2023-02-19T10:30:33;12.70;75.10
68719;DHT22;55696;52.138;5.444;2023-02-19T10:33:13;12.80;75.40
68719;DHT22;55696;52.138;5.444;2023-02-19T10:38:37;12.70;76.20
68719;DHT22;55696;52.138;5.444;2023-02-19T10:41:16;12.80;74.80
68719;DHT22;55696;52.138;5.444;2023-02-19T10:46:24;12.90;74.60
68719;DHT22;55696;52.138;5.444;2023-02-19T10:48:56;12.70;74.30
68719;DHT22;55696;52.138;5.444;2023-02-19T10:51:38;12.70;74.30
68719;DHT22;55696;52.138;5.444;2023-02-19T10:54:30;12.60;74.90
68719;DHT22;55696;52.138;5.444;2023-02-19T10:59:59;12.70;75.20
68719;DHT22;55696;52.138;5.444;2023-02-19T11:02:29;12.80;74.70
68719;DHT22;55696;52.138;5.444;2023-02-19T11:05:17;12.70;74.10
68719;DHT22;55696;52.138;5.444;2023-02-19T11:07:53;12.80;75.20
68719;DHT22;55696;52.138;5.444;2023-02-19T11:10:27;12.80;74.20
68719;DHT22;55696;52.138;5.444;2023-02-19T11:12:59;12.70;73.90
68719;DHT22;55696;52.138;5.444;2023-02-19T11:15:34;12.70;73.60
68719;DHT22;55696;52.138;5.444;2023-02-19T11:20:47;12.70;74.30
68719;DHT22;55696;52.138;5.444;2023-02-19T11:23:18;12.70;75.30
68719;DHT22;55696;52.138;5.444;2023-02-19T11:25:49;12.60;74.50
68719;DHT22;55696;52.138;5.444;2023-02-19T11:31:29;12.80;72.70
68719;DHT22;55696;52.138;5.444;2023-02-19T11:36:47;12.80;72.60
68719;DHT22;55696;52.138;5.444;2023-02-19T11:39:26;12.90;73.30
68719;DHT22;55696;52.138;5.444;2023-02-19T11:42:10;12.80;74.60
68719;DHT22;55696;52.138;5.444;2023-02-19T11:53:33;12.90;74.30
68719;DHT22;55696;52.138;5.444;2023-02-19T11:56:55;12.80;74.40
68719;DHT22;55696;52.138;5.444;2023-02-19T11:59:03;12.80;74.10
68719;DHT22;55696;52.138;5.444;2023-02-19T12:06:58;12.20;74.40
68719;DHT22;55696;52.138;5.444;2023-02-19T12:26:18;12.50;72.30
68719;DHT22;55696;52.138;5.444;2023-02-19T12:38:11;12.10;74.30
68719;DHT22;55696;52.138;5.444;2023-02-19T12:41:10;12.00;75.50
68719;DHT22;55696;52.138;5.444;2023-02-19T12:43:50;11.90;74.70
68719;DHT22;55696;52.138;5.444;2023-02-19T12:46:24;11.80;75.00
68719;DHT22;55696;52.138;5.444;2023-02-19T12:54:43;11.80;74.50
68719;DHT22;55696;52.138;5.444;2023-02-19T13:02:40;11.80;74.50
68719;DHT22;55696;52.138;5.444;2023-02-19T13:10:53;11.60;75.00
68719;DHT22;55696;52.138;5.444;2023-02-19T13:13:40;11.80;74.30
68719;DHT22;55696;52.138;5.444;2023-02-19T13:16:14;11.90;74.60
68719;DHT22;55696;52.138;5.444;2023-02-19T13:18:51;12.00;73.60
68719;DHT22;55696;52.138;5.444;2023-02-19T13:21:21;12.00;73.50
68719;DHT22;55696;52.138;5.444;2023-02-19T13:24:40;11.80;73.60
68719;DHT22;55696;52.138;5.444;2023-02-19T13:27:32;11.70;73.90
68719;DHT22;55696;52.138;5.444;2023-02-19T13:38:08;11.40;74.20
68719;DHT22;55696;52.138;5.444;2023-02-19T13:40:41;11.40;73.70
68719;DHT22;55696;52.138;5.444;2023-02-19T13:43:27;11.40;74.20
68719;DHT22;55696;52.138;5.444;2023-02-19T13:46:06;11.40;74.40
68719;DHT22;55696;52.138;5.444;2023-02-19T13:48:36;11.40;74.00
68719;DHT22;55696;52.138;5.444;2023-02-19T13:53:47;11.50;74.60
68719;DHT22;55696;52.138;5.444;2023-02-19T14:05:12;12.00;74.00
68719;DHT22;55696;52.138;5.444;2023-02-19T14:07:53;12.10;73.00
68719;DHT22;55696;52.138;5.444;2023-02-19T14:10:56;12.00;73.30
68719;DHT22;55696;52.138;5.444;2023-02-19T14:18:53;12.20;72.20
68719;DHT22;55696;52.138;5.444;2023-02-19T14:21:35;12.30;69.80
68719;DHT22;55696;52.138;5.444;2023-02-19T14:24:03;12.50;71.20
68719;DHT22;55696;52.138;5.444;2023-02-19T14:26:31;12.60;69.70
68719;DHT22;55696;52.138;5.444;2023-02-19T14:28:59;12.50;69.70
68719;DHT22;55696;52.138;5.444;2023-02-19T14:31:36;12.40;69.40
68719;DHT22;55696;52.138;5.444;2023-02-19T14:34:06;12.60;71.20
68719;DHT22;55696;52.138;5.444;2023-02-19T14:36:45;12.70;69.90
68719;DHT22;55696;52.138;5.444;2023-02-19T14:39:34;12.70;69.70
68719;DHT22;55696;52.138;5.444;2023-02-19T14:42:14;12.70;70.30
68719;DHT22;55696;52.138;5.444;2023-02-19T14:44:47;12.70;69.70
68719;DHT22;55696;52.138;5.444;2023-02-19T14:47:18;12.80;69.00
68719;DHT22;55696;52.138;5.444;2023-02-19T14:49:59;12.80;68.60
68719;DHT22;55696;52.138;5.444;2023-02-19T14:52:33;12.90;66.40
68719;DHT22;55696;52.138;5.444;2023-02-19T14:58:05;12.90;67.50
68719;DHT22;55696;52.138;5.444;2023-02-19T15:00:39;12.70;67.60
68719;DHT22;55696;52.138;5.444;2023-02-19T15:03:32;12.90;66.80
68719;DHT22;55696;52.138;5.444;2023-02-19T15:06:06;12.90;67.50
68719;DHT22;55696;52.138;5.444;2023-02-19T15:08:42;12.90;66.80
68719;DHT22;55696;52.138;5.444;2023-02-19T15:11:16;13.00;67.00
68719;DHT22;55696;52.138;5.444;2023-02-19T15:13:50;13.10;66.50
68719;DHT22;55696;52.138;5.444;2023-02-19T15:16:19;13.10;65.90
68719;DHT22;55696;52.138;5.444;2023-02-19T15:18:47;13.10;64.80
68719;DHT22;55696;52.138;5.444;2023-02-19T15:21:24;13.10;64.70
68719;DHT22;55696;52.138;5.444;2023-02-19T15:24:02;13.00;64.90
68719;DHT22;55696;52.138;5.444;2023-02-19T15:26:50;13.50;66.30
68719;DHT22;55696;52.138;5.444;2023-02-19T15:29:23;13.40;66.70
68719;DHT22;55696;52.138;5.444;2023-02-19T15:31:54;12.80;65.30
68719;DHT22;55696;52.138;5.444;2023-02-19T15:34:26;12.80;65.70
68719;DHT22;55696;52.138;5.444;2023-02-19T15:36:58;12.70;66.10
68719;DHT22;55696;52.138;5.444;2023-02-19T15:42:02;12.70;66.10
68719;DHT22;55696;52.138;5.444;2023-02-19T15:50:13;12.70;66.70
68719;DHT22;55696;52.138;5.444;2023-02-19T15:52:54;12.50;67.50
68719;DHT22;55696;52.138;5.444;2023-02-19T16:01:05;12.10;68.70
68719;DHT22;55696;52.138;5.444;2023-02-19T16:03:34;12.00;68.60
68719;DHT22;55696;52.138;5.444;2023-02-19T16:06:08;11.90;68.30
68719;DHT22;55696;52.138;5.444;2023-02-19T16:08:38;11.90;69.90
68719;DHT22;55696;52.138;5.444;2023-02-19T16:13:50;11.70;70.60
68719;DHT22;55696;52.138;5.444;2023-02-19T16:16:43;11.80;69.50
68719;DHT22;55696;52.138;5.444;2023-02-19T16:19:11;11.80;71.00
68719;DHT22;55696;52.138;5.444;2023-02-19T16:21:41;11.70;68.80
68719;DHT22;55696;52.138;5.444;2023-02-19T16:24:23;11.70;68.80
68719;DHT22;55696;52.138;5.444;2023-02-19T16:26:51;11.70;71.40
68719;DHT22;55696;52.138;5.444;2023-02-19T16:29:29;11.70;69.60
68719;DHT22;55696;52.138;5.444;2023-02-19T16:31:59;11.70;71.30
68719;DHT22;55696;52.138;5.444;2023-02-19T16:37:01;11.60;71.20
68719;DHT22;55696;52.138;5.444;2023-02-19T16:39:28;11.50;70.90
68719;DHT22;55696;52.138;5.444;2023-02-19T16:46:59;11.50;69.30
68719;DHT22;55696;52.138;5.444;2023-02-19T16:49:27;11.60;71.10
68719;DHT22;55696;52.138;5.444;2023-02-19T16:51:54;11.60;70.00
68719;DHT22;55696;52.138;5.444;2023-02-19T16:54:22;11.60;70.00
68719;DHT22;55696;52.138;5.444;2023-02-19T16:56:49;11.60;69.90
68719;DHT22;55696;52.138;5.444;2023-02-19T16:59:15;11.50;69.90
68719;DHT22;55696;52.138;5.444;2023-02-19T17:01:42;11.60;70.00
68719;DHT22;55696;52.138;5.444;2023-02-19T17:04:11;11.60;69.90
68719;DHT22;55696;52.138;5.444;2023-02-19T17:06:38;11.40;71.00
68719;DHT22;55696;52.138;5.444;2023-02-19T17:09:06;11.50;70.00
68719;DHT22;55696;52.138;5.444;2023-02-19T17:11:34;11.40;70.40
68719;DHT22;55696;52.138;5.444;2023-02-19T17:14:01;11.40;70.50
68719;DHT22;55696;52.138;5.444;2023-02-19T17:16:30;11.40;69.70
68719;DHT22;55696;52.138;5.444;2023-02-19T17:18:59;11.40;70.80
68719;DHT22;55696;52.138;5.444;2023-02-19T17:21:29;11.40;69.90
68719;DHT22;55696;52.138;5.444;2023-02-19T17:23:57;11.50;71.00
68719;DHT22;55696;52.138;5.444;2023-02-19T17:26:26;11.30;69.60
68719;DHT22;55696;52.138;5.444;2023-02-19T17:29:01;11.40;71.00
68719;DHT22;55696;52.138;5.444;2023-02-19T17:31:28;11.40;71.50
68719;DHT22;55696;52.138;5.444;2023-02-19T17:33:55;12.10;70.30
68719;DHT22;55696;52.138;5.444;2023-02-19T17:36:32;11.40;69.70
68719;DHT22;55696;52.138;5.444;2023-02-19T17:39:00;11.40;71.30
68719;DHT22;55696;52.138;5.444;2023-02-19T17:41:28;11.40;70.80
68719;DHT22;55696;52.138;5.444;2023-02-19T17:43:54;11.40;69.70
68719;DHT22;55696;52.138;5.444;2023-02-19T17:46:24;11.30;69.40
68719;DHT22;55696;52.138;5.444;2023-02-19T17:48:52;11.30;70.90
68719;DHT22;55696;52.138;5.444;2023-02-19T17:51:19;11.40;70.70
68719;DHT22;55696;52.138;5.444;2023-02-19T17:53:46;11.40;70.10
68719;DHT22;55696;52.138;5.444;2023-02-19T17:56:18;11.30;69.60
68719;DHT22;55696;52.138;5.444;2023-02-19T17:58:45;11.40;71.50
68719;DHT22;55696;52.138;5.444;2023-02-19T18:01:12;11.30;70.00
68719;DHT22;55696;52.138;5.444;2023-02-19T18:03:40;11.30;69.80
68719;DHT22;55696;52.138;5.444;2023-02-19T18:06:06;11.30;69.40
68719;DHT22;55696;52.138;5.444;2023-02-19T18:08:34;11.30;69.50
68719;DHT22;55696;52.138;5.444;2023-02-19T18:11:01;11.90;69.60
68719;DHT22;55696;52.138;5.444;2023-02-19T18:13:28;11.40;69.40
68719;DHT22;55696;52.138;5.444;2023-02-19T18:15:55;11.40;69.50
68719;DHT22;55696;52.138;5.444;2023-02-19T18:18:22;11.40;69.70
68719;DHT22;55696;52.138;5.444;2023-02-19T18:20:49;11.50;69.30
68719;DHT22;55696;52.138;5.444;2023-02-19T18:23:16;11.40;68.90
68719;DHT22;55696;52.138;5.444;2023-02-19T18:25:42;11.40;69.10
68719;DHT22;55696;52.138;5.444;2023-02-19T18:28:09;11.30;68.70
68719;DHT22;55696;52.138;5.444;2023-02-19T18:30:36;11.40;68.30
68719;DHT22;55696;52.138;5.444;2023-02-19T18:33:03;11.40;68.60
68719;DHT22;55696;52.138;5.444;2023-02-19T18:35:30;11.40;68.70
68719;DHT22;55696;52.138;5.444;2023-02-19T18:38:00;11.30;68.50
68719;DHT22;55696;52.138;5.444;2023-02-19T18:40:27;11.30;68.40
68719;DHT22;55696;52.138;5.444;2023-02-19T18:42:54;11.20;68.70
68719;DHT22;55696;52.138;5.444;2023-02-19T18:45:21;11.20;68.70
68719;DHT22;55696;52.138;5.444;2023-02-19T18:47:49;11.20;68.80